Time;durP1;ratioP1;P1;durP2;ratioP2;P2;SDS_P1;SDS_P2;PMS_P1;PMS_P2;Temp;Humidity;BMP_temperature;BMP_pressure;BME280_temperature;BME280_humidity;BME280_pressure;Samples;Min_cycle;Max_cycle;Signal;HPM_P1;HPM_P2
2022/02/27 00:01:06;;;;;;;3.95;1.80;;;;;;;;;;5091480;28;20111;-50
2022/02/27 00:03:32;;;;;;;2.50;1.17;;;;;;;;;;5091951;28;20074;-44
2022/02/27 00:05:58;;;;;;;3.50;1.55;;;;;;;;;;5091872;28;20020;-45
2022/02/27 00:08:24;;;;;;;2.83;1.23;;;;;;;;;;5090882;28;20032;-47
2022/02/27 00:10:50;;;;;;;4.75;1.17;;;;;;;;;;5091731;28;20036;-47
2022/02/27 00:13:16;;;;;;;2.85;1.27;;;;;;;;;;5091060;28;20020;-47
2022/02/27 00:15:42;;;;;;;2.95;1.45;;;;;;;;;;5091932;28;20044;-45
2022/02/27 00:18:08;;;;;;;5.10;1.17;;;;;;;;;;5091211;28;20081;-50
2022/02/27 00:20:34;;;;;;;2.33;1.15;;;;;;;;;;5091551;28;20438;-47
2022/02/27 00:23:00;;;;;;;1.77;0.88;;;;;;;;;;5091873;28;20052;-46
2022/02/27 00:25:26;;;;;;;2.88;1.40;;;;;;;;;;5095248;28;20051;-45
2022/02/27 00:27:53;;;;;;;2.28;1.23;;;;;;;;;;5095953;28;20453;-44
2022/02/27 00:30:19;;;;;;;3.05;1.35;;;;;;;;;;5095138;28;20427;-44
2022/02/27 00:32:45;;;;;;;2.92;1.10;;;;;;;;;;5095678;28;20372;-45
2022/02/27 00:35:11;;;;;;;2.53;0.98;;;;;;;;;;5095088;28;20436;-44
2022/02/27 00:37:37;;;;;;;2.35;1.20;;;;;;;;;;5095610;28;20107;-45
2022/02/27 00:40:05;;;;;;;3.40;1.25;;;;;;;;;;5095494;28;20473;-44
2022/02/27 00:42:31;;;;;;;3.33;1.67;;;;;;;;;;5094671;28;20469;-44
2022/02/27 00:44:57;;;;;;;1.65;0.93;;;;;;;;;;5078650;28;20067;-45
2022/02/27 00:47:23;;;;;;;2.15;1.35;;;;;;;;;;5074630;28;20033;-46
2022/02/27 00:49:49;;;;;;;2.45;1.20;;;;;;;;;;5074987;28;20440;-45
2022/02/27 00:52:18;;;;;;;2.08;1.25;;;;;;;;;;5074284;28;20036;-45
2022/02/27 00:54:44;;;;;;;3.10;1.23;;;;;;;;;;5074746;28;20527;-45
2022/02/27 00:57:10;;;;;;;2.55;1.17;;;;;;;;;;5074343;28;20113;-50
2022/02/27 00:59:36;;;;;;;2.83;1.48;;;;;;;;;;5075406;28;20071;-45
2022/02/27 01:02:02;;;;;;;2.38;1.23;;;;;;;;;;5075664;28;20496;-45
2022/02/27 01:04:28;;;;;;;1.85;0.88;;;;;;;;;;5074473;28;20259;-45
2022/02/27 01:06:54;;;;;;;2.95;1.02;;;;;;;;;;5074674;28;20608;-44
2022/02/27 01:09:20;;;;;;;2.35;1.20;;;;;;;;;;5073609;28;20111;-44
2022/02/27 01:11:46;;;;;;;2.05;0.90;;;;;;;;;;5074904;28;20021;-45
2022/02/27 01:14:12;;;;;;;2.85;0.90;;;;;;;;;;5073634;28;20608;-45
2022/02/27 01:16:38;;;;;;;1.55;0.80;;;;;;;;;;5074860;28;20109;-46
2022/02/27 01:19:05;;;;;;;3.03;1.23;;;;;;;;;;5074626;28;20067;-44
2022/02/27 01:21:32;;;;;;;1.98;1.13;;;;;;;;;;5073925;28;20253;-45
2022/02/27 01:23:58;;;;;;;2.58;1.13;;;;;;;;;;5074503;28;20024;-44
2022/02/27 01:26:24;;;;;;;2.05;1.00;;;;;;;;;;5073832;28;20182;-44
2022/02/27 01:28:50;;;;;;;2.35;1.20;;;;;;;;;;5074500;28;20039;-46
2022/02/27 01:31:16;;;;;;;1.25;0.73;;;;;;;;;;5074114;28;20020;-44
2022/02/27 01:33:42;;;;;;;3.13;1.58;;;;;;;;;;5074758;28;20029;-46
2022/02/27 01:36:08;;;;;;;1.95;1.05;;;;;;;;;;5072980;28;20029;-50
2022/02/27 01:38:34;;;;;;;2.50;1.63;;;;;;;;;;5073902;28;20074;-47
2022/02/27 01:41:01;;;;;;;3.92;1.50;;;;;;;;;;5056315;28;20368;-44
2022/02/27 01:43:27;;;;;;;1.83;1.10;;;;;;;;;;5077572;28;20119;-45
2022/02/27 01:45:53;;;;;;;2.95;1.60;;;;;;;;;;5094202;28;20062;-45
2022/02/27 01:48:19;;;;;;;1.60;0.88;;;;;;;;;;5093755;28;20063;-45
2022/02/27 01:50:45;;;;;;;1.85;1.13;;;;;;;;;;5094238;28;20059;-44
2022/02/27 01:53:11;;;;;;;2.05;0.90;;;;;;;;;;5093644;28;20054;-50
2022/02/27 01:55:37;;;;;;;2.25;1.20;;;;;;;;;;5094142;28;20055;-48
2022/02/27 01:58:03;;;;;;;2.92;1.20;;;;;;;;;;5093281;28;20111;-49
2022/02/27 02:00:29;;;;;;;4.03;1.15;;;;;;;;;;5094100;28;20027;-46
2022/02/27 02:02:55;;;;;;;2.88;0.93;;;;;;;;;;5094740;28;20033;-49
2022/02/27 02:05:21;;;;;;;3.70;1.33;;;;;;;;;;5093287;28;20029;-46
2022/02/27 02:07:47;;;;;;;2.65;1.00;;;;;;;;;;5094109;28;20108;-48
2022/02/27 02:10:13;;;;;;;1.55;1.00;;;;;;;;;;5093053;28;20035;-49
2022/02/27 02:12:39;;;;;;;4.15;1.15;;;;;;;;;;5093782;28;20043;-47
2022/02/27 02:15:06;;;;;;;3.00;1.48;;;;;;;;;;5093546;28;20480;-50
2022/02/27 02:17:32;;;;;;;1.73;1.25;;;;;;;;;;5093173;28;20131;-47
2022/02/27 02:19:58;;;;;;;1.70;0.90;;;;;;;;;;5093585;28;20031;-48
2022/02/27 02:22:24;;;;;;;2.75;1.23;;;;;;;;;;5093077;28;20074;-45
2022/02/27 02:24:50;;;;;;;2.25;1.10;;;;;;;;;;5093640;28;20032;-46
2022/02/27 02:27:16;;;;;;;2.00;1.17;;;;;;;;;;5093086;28;20036;-45
2022/02/27 02:29:42;;;;;;;3.97;1.25;;;;;;;;;;5093910;28;20028;-45
2022/02/27 02:32:08;;;;;;;1.95;1.00;;;;;;;;;;5093659;28;20027;-47
2022/02/27 02:34:34;;;;;;;3.13;1.17;;;;;;;;;;5092660;28;20094;-46
2022/02/27 02:37:00;;;;;;;1.73;0.90;;;;;;;;;;5093496;28;20085;-45
2022/02/27 02:39:29;;;;;;;2.28;1.10;;;;;;;;;;5092607;28;20112;-47
2022/02/27 02:41:56;;;;;;;2.72;0.88;;;;;;;;;;5093624;28;20473;-45
2022/02/27 02:44:22;;;;;;;2.03;1.08;;;;;;;;;;5080918;28;20017;-45
2022/02/27 02:46:48;;;;;;;2.35;1.42;;;;;;;;;;5072793;28;20060;-45
2022/02/27 02:49:14;;;;;;;1.80;0.90;;;;;;;;;;5072252;28;20066;-48
2022/02/27 02:51:41;;;;;;;2.83;0.93;;;;;;;;;;5072663;28;20073;-47
2022/02/27 02:54:07;;;;;;;3.13;1.00;;;;;;;;;;5073024;28;20021;-46
2022/02/27 02:56:34;;;;;;;4.43;1.80;;;;;;;;;;5071929;28;20034;-46
2022/02/27 02:59:00;;;;;;;2.90;1.20;;;;;;;;;;5072471;28;20095;-49
2022/02/27 03:01:27;;;;;;;2.45;0.98;;;;;;;;;;5071955;28;20021;-45
2022/02/27 03:03:53;;;;;;;1.88;1.08;;;;;;;;;;5072760;28;20020;-45
2022/02/27 03:06:20;;;;;;;2.00;1.10;;;;;;;;;;5071809;28;20031;-44
2022/02/27 03:08:47;;;;;;;2.70;1.00;;;;;;;;;;5072716;28;20048;-44
2022/02/27 03:11:13;;;;;;;2.40;1.45;;;;;;;;;;5071847;28;20377;-48
2022/02/27 03:13:39;;;;;;;3.17;1.30;;;;;;;;;;5072251;28;20103;-44
2022/02/27 03:16:05;;;;;;;1.92;1.00;;;;;;;;;;5072431;28;20148;-45
2022/02/27 03:18:31;;;;;;;3.80;1.10;;;;;;;;;;5072029;28;20036;-44
2022/02/27 03:20:59;;;;;;;3.03;1.27;;;;;;;;;;5072327;28;20029;-44
2022/02/27 03:23:25;;;;;;;2.67;1.20;;;;;;;;;;5071637;28;20115;-44
2022/02/27 03:25:51;;;;;;;1.65;1.10;;;;;;;;;;5072178;28;20354;-44
2022/02/27 03:28:17;;;;;;;2.75;1.10;;;;;;;;;;5071682;28;20027;-45
2022/02/27 03:30:43;;;;;;;2.75;1.17;;;;;;;;;;5072249;28;20025;-44
2022/02/27 03:33:09;;;;;;;2.75;0.90;;;;;;;;;;5072183;28;20469;-45
2022/02/27 03:35:35;;;;;;;1.65;0.90;;;;;;;;;;5071476;28;20040;-44
2022/02/27 03:38:02;;;;;;;4.03;1.50;;;;;;;;;;5072251;28;20457;-44
2022/02/27 03:40:28;;;;;;;1.80;0.98;;;;;;;;;;5071137;28;20107;-45
2022/02/27 03:42:54;;;;;;;2.80;1.75;;;;;;;;;;5071712;28;20462;-44
2022/02/27 03:45:20;;;;;;;2.40;1.23;;;;;;;;;;5071117;28;20029;-45
2022/02/27 03:47:46;;;;;;;1.60;1.05;;;;;;;;;;5072140;28;20029;-44
2022/02/27 03:50:13;;;;;;;1.98;0.90;;;;;;;;;;5071929;28;20032;-50
2022/02/27 03:52:39;;;;;;;2.22;1.00;;;;;;;;;;5053932;28;20032;-44
2022/02/27 03:55:06;;;;;;;2.85;1.17;;;;;;;;;;5072392;28;20052;-44
2022/02/27 03:57:32;;;;;;;2.28;0.90;;;;;;;;;;5070548;28;20335;-45
2022/02/27 03:59:58;;;;;;;2.47;1.15;;;;;;;;;;5071578;28;20159;-46
2022/02/27 04:02:24;;;;;;;3.30;1.00;;;;;;;;;;5071163;28;20039;-44
2022/02/27 04:04:50;;;;;;;2.17;1.25;;;;;;;;;;5071958;28;20024;-45
2022/02/27 04:07:16;;;;;;;3.15;1.20;;;;;;;;;;5071134;28;20469;-52
2022/02/27 04:09:42;;;;;;;3.45;1.67;;;;;;;;;;5071840;28;20087;-47
2022/02/27 04:12:08;;;;;;;1.73;0.85;;;;;;;;;;5071374;28;20034;-45
2022/02/27 04:14:34;;;;;;;1.20;0.88;;;;;;;;;;5070834;28;20052;-45
2022/02/27 04:17:00;;;;;;;2.13;1.10;;;;;;;;;;5071821;28;20035;-44
2022/02/27 04:19:26;;;;;;;1.42;0.80;;;;;;;;;;5070933;28;20056;-45
2022/02/27 04:21:52;;;;;;;2.42;1.13;;;;;;;;;;5071417;28;20048;-45
2022/02/27 04:24:19;;;;;;;1.48;0.93;;;;;;;;;;5070896;28;20021;-45
2022/02/27 04:26:45;;;;;;;2.25;1.20;;;;;;;;;;5071448;28;20028;-45
2022/02/27 04:29:11;;;;;;;2.20;1.20;;;;;;;;;;5071585;28;20023;-45
2022/02/27 04:31:37;;;;;;;3.28;1.08;;;;;;;;;;5070740;28;20127;-45
2022/02/27 04:34:03;;;;;;;2.45;1.10;;;;;;;;;;5071624;28;20025;-44
2022/02/27 04:36:29;;;;;;;2.72;1.20;;;;;;;;;;5070802;28;20032;-44
2022/02/27 04:38:55;;;;;;;1.92;1.05;;;;;;;;;;5071541;28;20024;-45
2022/02/27 04:41:22;;;;;;;3.00;1.23;;;;;;;;;;5070644;28;20060;-45
2022/02/27 04:43:48;;;;;;;2.83;1.20;;;;;;;;;;5077908;28;20031;-46
2022/02/27 04:46:14;;;;;;;2.03;1.10;;;;;;;;;;5091630;28;20030;-51
2022/02/27 04:48:41;;;;;;;3.17;1.30;;;;;;;;;;5091518;28;20024;-44
2022/02/27 04:51:07;;;;;;;2.47;1.15;;;;;;;;;;5091627;28;20035;-48
2022/02/27 04:53:33;;;;;;;2.33;1.33;;;;;;;;;;5090682;28;20028;-44
2022/02/27 04:55:59;;;;;;;4.15;1.58;;;;;;;;;;5091976;28;20418;-44
2022/02/27 04:58:25;;;;;;;2.15;1.25;;;;;;;;;;5090287;28;20095;-47
2022/02/27 05:00:51;;;;;;;3.20;1.20;;;;;;;;;;5091640;28;20059;-45
2022/02/27 05:03:17;;;;;;;2.67;1.30;;;;;;;;;;5091399;28;20060;-47
2022/02/27 05:05:43;;;;;;;4.15;1.30;;;;;;;;;;5091325;28;20035;-45
2022/02/27 05:08:09;;;;;;;2.47;1.10;;;;;;;;;;5091502;28;20035;-46
2022/02/27 05:10:36;;;;;;;2.03;0.90;;;;;;;;;;5093342;28;20028;-45
2022/02/27 05:13:02;;;;;;;1.67;0.70;;;;;;;;;;5095109;28;20107;-45
2022/02/27 05:15:28;;;;;;;2.22;0.90;;;;;;;;;;5094303;28;20051;-45
2022/02/27 05:17:54;;;;;;;1.80;0.90;;;;;;;;;;5095006;28;20024;-46
2022/02/27 05:20:21;;;;;;;1.60;0.93;;;;;;;;;;5093865;28;20063;-45
2022/02/27 05:22:47;;;;;;;2.90;1.08;;;;;;;;;;5094943;28;20028;-45
2022/02/27 05:25:16;;;;;;;1.35;0.90;;;;;;;;;;5094998;28;20381;-44
2022/02/27 05:27:42;;;;;;;1.70;1.00;;;;;;;;;;5094426;28;20024;-46
2022/02/27 05:30:08;;;;;;;3.85;1.30;;;;;;;;;;5094613;28;20107;-44
2022/02/27 05:32:34;;;;;;;1.92;0.80;;;;;;;;;;5094028;28;20016;-45
2022/02/27 05:35:00;;;;;;;2.17;1.15;;;;;;;;;;5094779;28;20024;-48
2022/02/27 05:37:26;;;;;;;1.88;0.95;;;;;;;;;;5093950;28;20026;-47
2022/02/27 05:39:53;;;;;;;2.70;1.00;;;;;;;;;;5094565;28;20024;-45
2022/02/27 05:42:19;;;;;;;1.98;1.35;;;;;;;;;;5094062;28;20025;-48
2022/02/27 05:44:45;;;;;;;1.98;0.80;;;;;;;;;;5079397;28;20453;-44
2022/02/27 05:47:11;;;;;;;2.38;1.40;;;;;;;;;;5074355;28;20020;-45
2022/02/27 05:49:37;;;;;;;1.85;1.05;;;;;;;;;;5073715;28;20028;-47
2022/02/27 05:52:03;;;;;;;1.98;1.33;;;;;;;;;;5073924;28;20021;-44
2022/02/27 05:54:29;;;;;;;2.58;0.90;;;;;;;;;;5073386;28;20474;-45
2022/02/27 05:56:56;;;;;;;2.95;0.98;;;;;;;;;;5074227;28;20059;-49
2022/02/27 05:59:22;;;;;;;3.90;1.27;;;;;;;;;;5055106;28;20029;-44
2022/02/27 06:01:48;;;;;;;1.75;1.10;;;;;;;;;;5073865;28;20032;-45
2022/02/27 06:04:15;;;;;;;4.00;1.13;;;;;;;;;;5073283;28;20540;-44
2022/02/27 06:06:41;;;;;;;1.83;1.10;;;;;;;;;;5073263;28;20056;-44
2022/02/27 06:09:08;;;;;;;2.33;1.15;;;;;;;;;;5073982;28;20155;-48
2022/02/27 06:11:35;;;;;;;1.15;0.80;;;;;;;;;;5054479;28;20051;-46
2022/02/27 06:14:01;;;;;;;1.42;0.98;;;;;;;;;;5072883;28;20028;-45
2022/02/27 06:16:27;;;;;;;2.72;1.10;;;;;;;;;;5073089;28;20082;-44
2022/02/27 06:18:53;;;;;;;2.22;1.25;;;;;;;;;;5073393;28;20025;-46
2022/02/27 06:21:20;;;;;;;2.35;1.20;;;;;;;;;;5072133;28;20060;-47
2022/02/27 06:23:46;;;;;;;3.42;1.20;;;;;;;;;;5073084;28;20031;-44
2022/02/27 06:26:12;;;;;;;3.08;1.08;;;;;;;;;;5073468;28;20021;-44
2022/02/27 06:28:38;;;;;;;1.73;1.10;;;;;;;;;;5072645;28;20032;-48
2022/02/27 06:31:04;;;;;;;3.38;1.30;;;;;;;;;;5073642;28;20032;-44
2022/02/27 06:33:30;;;;;;;1.75;1.10;;;;;;;;;;5072544;28;20029;-46
2022/02/27 06:35:56;;;;;;;2.50;1.20;;;;;;;;;;5073353;28;20027;-49
2022/02/27 06:38:23;;;;;;;0.90;0.80;;;;;;;;;;5072500;28;20082;-46
2022/02/27 06:40:49;;;;;;;2.08;1.10;;;;;;;;;;5073211;28;20028;-44
2022/02/27 06:43:15;;;;;;;1.63;0.98;;;;;;;;;;5075235;28;20385;-48
2022/02/27 06:45:41;;;;;;;1.40;1.10;;;;;;;;;;5092005;28;20035;-45
2022/02/27 06:48:08;;;;;;;4.25;1.35;;;;;;;;;;5093309;28;20028;-44
2022/02/27 06:50:34;;;;;;;3.58;1.45;;;;;;;;;;5092420;28;20035;-45
2022/02/27 06:53:00;;;;;;;1.52;0.90;;;;;;;;;;5093258;28;20444;-44
2022/02/27 06:55:26;;;;;;;2.00;1.23;;;;;;;;;;5073828;28;20028;-44
2022/02/27 06:57:52;;;;;;;2.83;1.40;;;;;;;;;;5093097;28;20418;-44
2022/02/27 07:00:19;;;;;;;1.65;1.13;;;;;;;;;;5092522;28;20465;-47
2022/02/27 07:02:46;;;;;;;2.38;1.25;;;;;;;;;;5074474;28;20079;-42
2022/02/27 07:05:12;;;;;;;2.13;1.13;;;;;;;;;;5092949;28;20031;-44
2022/02/27 07:07:38;;;;;;;2.25;1.20;;;;;;;;;;5091966;28;20080;-44
2022/02/27 07:10:05;;;;;;;2.50;1.20;;;;;;;;;;5092790;28;20071;-44
2022/02/27 07:12:32;;;;;;;3.70;1.40;;;;;;;;;;5092133;28;20020;-45
2022/02/27 07:14:58;;;;;;;2.55;0.88;;;;;;;;;;5092520;28;20473;-44
2022/02/27 07:17:25;;;;;;;2.65;1.10;;;;;;;;;;5091805;28;20020;-47
2022/02/27 07:19:51;;;;;;;3.45;1.15;;;;;;;;;;5092410;28;20028;-44
2022/02/27 07:22:18;;;;;;;1.30;1.00;;;;;;;;;;5092719;28;20064;-45
2022/02/27 07:24:44;;;;;;;3.40;1.63;;;;;;;;;;5091485;28;20530;-43
2022/02/27 07:27:10;;;;;;;2.65;0.90;;;;;;;;;;5092528;28;20042;-43
2022/02/27 07:29:38;;;;;;;2.40;1.58;;;;;;;;;;5092745;28;20035;-44
2022/02/27 07:32:05;;;;;;;2.35;1.17;;;;;;;;;;5093379;28;20032;-46
2022/02/27 07:34:31;;;;;;;2.58;0.98;;;;;;;;;;5090852;28;20534;-45
2022/02/27 07:36:57;;;;;;;1.95;1.00;;;;;;;;;;5092708;28;20028;-42
2022/02/27 07:39:23;;;;;;;2.88;1.50;;;;;;;;;;5092770;28;20465;-47
2022/02/27 07:41:50;;;;;;;2.10;1.20;;;;;;;;;;5092470;28;20028;-42
2022/02/27 07:44:16;;;;;;;1.55;1.20;;;;;;;;;;5081374;28;20433;-44
2022/02/27 07:46:43;;;;;;;1.45;1.00;;;;;;;;;;5070908;28;20068;-43
2022/02/27 07:49:09;;;;;;;1.73;1.10;;;;;;;;;;5072044;28;20350;-44
2022/02/27 07:51:35;;;;;;;2.05;1.13;;;;;;;;;;5071414;28;20021;-44
2022/02/27 07:54:02;;;;;;;2.67;1.40;;;;;;;;;;5072052;28;20458;-42
2022/02/27 07:56:30;;;;;;;3.15;1.52;;;;;;;;;;5071755;28;20028;-46
2022/02/27 07:58:57;;;;;;;2.22;1.05;;;;;;;;;;5070913;28;20415;-48
2022/02/27 08:01:23;;;;;;;3.83;1.60;;;;;;;;;;5091771;28;20067;-44
2022/02/27 08:03:49;;;;;;;2.55;1.10;;;;;;;;;;5091529;28;20020;-43
2022/02/27 08:06:16;;;;;;;2.22;1.20;;;;;;;;;;5091850;28;20039;-46
2022/02/27 08:08:42;;;;;;;1.83;1.40;;;;;;;;;;5091273;28;20043;-43
2022/02/27 08:11:08;;;;;;;2.03;1.10;;;;;;;;;;5092388;28;20477;-47
2022/02/27 08:13:35;;;;;;;2.90;1.75;;;;;;;;;;5091038;28;20036;-44
2022/02/27 08:16:01;;;;;;;2.55;1.35;;;;;;;;;;5091728;28;20048;-46
2022/02/27 08:18:29;;;;;;;1.92;0.90;;;;;;;;;;5072932;28;20024;-47
2022/02/27 08:20:55;;;;;;;2.55;1.33;;;;;;;;;;5091954;28;20035;-46
2022/02/27 08:23:22;;;;;;;3.45;1.65;;;;;;;;;;5092244;28;20107;-44
2022/02/27 08:25:48;;;;;;;2.40;1.48;;;;;;;;;;5090590;28;20510;-45
2022/02/27 08:28:15;;;;;;;2.08;1.17;;;;;;;;;;5073702;28;20375;-45
2022/02/27 08:30:41;;;;;;;1.90;0.93;;;;;;;;;;5090872;28;20024;-47
2022/02/27 08:33:07;;;;;;;5.15;1.25;;;;;;;;;;5091975;28;20481;-46
2022/02/27 08:35:33;;;;;;;4.38;1.30;;;;;;;;;;5079292;28;20021;-45
2022/02/27 08:37:59;;;;;;;3.95;0.95;;;;;;;;;;5072992;28;20462;-44
2022/02/27 08:40:25;;;;;;;1.90;1.00;;;;;;;;;;5072825;28;20031;-46
2022/02/27 08:42:55;;;;;;;2.08;1.35;;;;;;;;;;5071005;28;20081;-47
2022/02/27 08:45:22;;;;;;;4.15;1.10;;;;;;;;;;5073908;28;20412;-48
2022/02/27 08:47:48;;;;;;;2.35;1.33;;;;;;;;;;5074552;28;20896;-46
2022/02/27 08:50:14;;;;;;;2.90;1.10;;;;;;;;;;5075374;28;20111;-45
2022/02/27 08:52:40;;;;;;;4.13;1.33;;;;;;;;;;5074394;28;20428;-44
2022/02/27 08:55:06;;;;;;;3.05;0.88;;;;;;;;;;5075192;28;20025;-45
2022/02/27 08:57:33;;;;;;;3.90;1.30;;;;;;;;;;5074712;28;20423;-47
2022/02/27 08:59:59;;;;;;;2.42;1.08;;;;;;;;;;5074706;28;20077;-46
2022/02/27 09:02:25;;;;;;;3.20;0.93;;;;;;;;;;5075809;28;20036;-44
2022/02/27 09:04:51;;;;;;;2.10;0.93;;;;;;;;;;5074544;28;20023;-45
2022/02/27 09:07:17;;;;;;;1.30;1.00;;;;;;;;;;5056913;28;20024;-43
2022/02/27 09:09:43;;;;;;;3.13;1.20;;;;;;;;;;5074165;28;20029;-47
2022/02/27 09:12:10;;;;;;;3.60;1.52;;;;;;;;;;5074806;28;20082;-45
2022/02/27 09:14:37;;;;;;;2.17;1.13;;;;;;;;;;5073185;28;20072;-45
2022/02/27 09:17:03;;;;;;;1.13;0.77;;;;;;;;;;5074449;28;20031;-46
2022/02/27 09:19:29;;;;;;;0.90;0.68;;;;;;;;;;5074171;28;20046;-49
2022/02/27 09:21:55;;;;;;;2.13;1.33;;;;;;;;;;5074443;28;20465;-47
2022/02/27 09:24:21;;;;;;;3.47;1.52;;;;;;;;;;5074537;28;20470;-45
2022/02/27 09:26:48;;;;;;;3.00;0.93;;;;;;;;;;5074182;28;20188;-48
2022/02/27 09:29:14;;;;;;;1.67;1.00;;;;;;;;;;5074928;28;20085;-47
2022/02/27 09:31:40;;;;;;;3.95;1.50;;;;;;;;;;5073448;28;20025;-44
2022/02/27 09:34:06;;;;;;;2.35;1.10;;;;;;;;;;5074712;28;20095;-44
2022/02/27 09:36:32;;;;;;;1.40;0.75;;;;;;;;;;5073837;28;20082;-46
2022/02/27 09:38:58;;;;;;;2.22;1.33;;;;;;;;;;5074423;28;20021;-45
2022/02/27 09:41:24;;;;;;;2.15;1.20;;;;;;;;;;5074620;28;20029;-45
2022/02/27 09:43:58;;;;;;;3.65;1.50;;;;;;;;;;5080597;28;20020;-46
2022/02/27 09:46:25;;;;;;;2.08;0.82;;;;;;;;;;5094284;28;20040;-45
2022/02/27 09:48:52;;;;;;;1.88;1.00;;;;;;;;;;5093492;28;20016;-44
2022/02/27 09:51:18;;;;;;;1.33;0.73;;;;;;;;;;5094063;28;20431;-46
2022/02/27 09:53:44;;;;;;;5.00;1.23;;;;;;;;;;5093438;28;20028;-46
2022/02/27 09:56:10;;;;;;;4.40;1.38;;;;;;;;;;5093292;28;20050;-47
2022/02/27 09:58:36;;;;;;;3.72;1.38;;;;;;;;;;5093472;28;20121;-50
2022/02/27 10:01:03;;;;;;;4.30;1.00;;;;;;;;;;5094102;28;20487;-50
2022/02/27 10:03:31;;;;;;;4.28;1.13;;;;;;;;;;5094109;28;20027;-53
2022/02/27 10:06:15;;;;;;;3.08;1.25;;;;;;;;;;5094090;28;20020;-49
2022/02/27 10:08:42;;;;;;;3.22;0.90;;;;;;;;;;5093501;28;20415;-47
2022/02/27 10:11:12;;;;;;;6.53;1.63;;;;;;;;;;5093977;28;20050;-46
2022/02/27 10:13:40;;;;;;;2.72;1.15;;;;;;;;;;5093061;28;20056;-47
2022/02/27 10:16:10;;;;;;;3.85;1.50;;;;;;;;;;5093620;28;20473;-46
2022/02/27 10:18:39;;;;;;;2.25;0.80;;;;;;;;;;5092935;28;20028;-49
2022/02/27 10:21:05;;;;;;;2.72;1.27;;;;;;;;;;5093587;28;20112;-46
2022/02/27 10:23:31;;;;;;;1.73;0.90;;;;;;;;;;5093648;28;20520;-52
2022/02/27 10:25:57;;;;;;;2.75;1.40;;;;;;;;;;5093734;28;20012;-47
2022/02/27 10:28:23;;;;;;;3.13;1.10;;;;;;;;;;5093517;28;20065;-48
2022/02/27 10:30:51;;;;;;;4.30;1.50;;;;;;;;;;5092548;28;20107;-48
2022/02/27 10:33:17;;;;;;;2.00;1.10;;;;;;;;;;5093591;28;20023;-48
2022/02/27 10:35:50;;;;;;;2.28;1.00;;;;;;;;;;5092638;28;20039;-49
2022/02/27 10:38:45;;;;;;;1.42;1.02;;;;;;;;;;5093508;28;20028;-45
2022/02/27 10:41:14;;;;;;;2.47;1.15;;;;;;;;;;5076374;28;20049;-45
2022/02/27 10:43:44;;;;;;;3.88;1.00;;;;;;;;;;5082874;28;20056;-45
2022/02/27 10:46:11;;;;;;;2.33;1.10;;;;;;;;;;5084075;28;20058;-45
2022/02/27 10:48:37;;;;;;;3.80;1.02;;;;;;;;;;5092364;28;20032;-44
2022/02/27 10:51:08;;;;;;;2.45;1.10;;;;;;;;;;5093056;28;20113;-46
2022/02/27 10:53:38;;;;;;;3.92;1.00;;;;;;;;;;5074282;28;20024;-50
2022/02/27 10:56:04;;;;;;;2.22;0.85;;;;;;;;;;5093045;28;20028;-46
2022/02/27 10:58:40;;;;;;;2.88;1.10;;;;;;;;;;5092696;28;20027;-53
2022/02/27 11:01:16;;;;;;;2.95;1.00;;;;;;;;;;5092851;28;20028;-45
2022/02/27 11:03:43;;;;;;;1.65;0.80;;;;;;;;;;5088911;28;20032;-45
2022/02/27 11:06:10;;;;;;;2.05;1.10;;;;;;;;;;5076775;28;20020;-47
2022/02/27 11:08:36;;;;;;;1.67;0.90;;;;;;;;;;5071445;28;20025;-44
2022/02/27 11:11:03;;;;;;;3.05;1.17;;;;;;;;;;5072417;28;20512;-46
2022/02/27 11:13:30;;;;;;;1.23;0.80;;;;;;;;;;5082988;28;20487;-47
2022/02/27 11:15:56;;;;;;;2.03;0.90;;;;;;;;;;5092122;28;20073;-50
2022/02/27 11:18:22;;;;;;;3.00;1.30;;;;;;;;;;5092160;28;20473;-47
2022/02/27 11:20:48;;;;;;;2.13;1.02;;;;;;;;;;5091559;28;20085;-44
2022/02/27 11:23:15;;;;;;;1.05;0.70;;;;;;;;;;5092634;28;20095;-48
2022/02/27 11:25:41;;;;;;;2.10;1.23;;;;;;;;;;5091691;28;20419;-48
2022/02/27 11:28:09;;;;;;;1.83;0.68;;;;;;;;;;5092439;28;20024;-46
2022/02/27 11:30:36;;;;;;;1.42;0.80;;;;;;;;;;5091635;28;20028;-51
2022/02/27 11:33:06;;;;;;;1.63;1.20;;;;;;;;;;5092374;28;20095;-46
2022/02/27 11:35:32;;;;;;;2.95;1.13;;;;;;;;;;5092106;28;20031;-50
2022/02/27 11:37:58;;;;;;;1.45;0.90;;;;;;;;;;5091440;28;20020;-45
2022/02/27 11:40:28;;;;;;;2.50;1.20;;;;;;;;;;5092099;28;20036;-47
2022/02/27 11:42:54;;;;;;;1.10;0.90;;;;;;;;;;5091139;28;20042;-47
2022/02/27 11:45:21;;;;;;;2.83;1.48;;;;;;;;;;5068532;28;20039;-52
2022/02/27 11:47:48;;;;;;;3.10;0.90;;;;;;;;;;5073172;28;20029;-47
2022/02/27 11:50:26;;;;;;;1.95;0.90;;;;;;;;;;5072474;28;20107;-46
2022/02/27 11:52:52;;;;;;;1.38;0.95;;;;;;;;;;5070554;28;20659;-46
2022/02/27 11:55:37;;;;;;;1.75;1.02;;;;;;;;;;5071701;28;20446;-50
2022/02/27 11:58:03;;;;;;;2.55;1.23;;;;;;;;;;5071723;28;20095;-49
2022/02/27 12:00:39;;;;;;;1.42;0.90;;;;;;;;;;5071369;28;20112;-45
2022/02/27 12:03:24;;;;;;;1.55;1.17;;;;;;;;;;5071563;28;20361;-49
2022/02/27 12:05:51;;;;;;;2.60;1.10;;;;;;;;;;5070913;28;20373;-48
2022/02/27 12:08:18;;;;;;;1.88;0.80;;;;;;;;;;5071431;28;20025;-45
2022/02/27 12:10:45;;;;;;;4.30;0.90;;;;;;;;;;5070739;28;20028;-47
2022/02/27 12:13:17;;;;;;;1.83;0.90;;;;;;;;;;5071299;28;20417;-46
2022/02/27 12:15:43;;;;;;;1.90;0.85;;;;;;;;;;5086216;28;20044;-48
2022/02/27 12:18:18;;;;;;;4.93;1.65;;;;;;;;;;5091697;28;20028;-46
2022/02/27 12:20:46;;;;;;;3.53;0.85;;;;;;;;;;5093719;28;20043;-45
2022/02/27 12:23:34;;;;;;;3.25;1.15;;;;;;;;;;5095723;28;20039;-45
2022/02/27 12:26:01;;;;;;;3.80;0.98;;;;;;;;;;5079607;28;20032;-46
2022/02/27 12:28:48;;;;;;;1.55;0.50;;;;;;;;;;5095743;28;20029;-46
2022/02/27 12:31:17;;;;;;;1.77;0.80;;;;;;;;;;5095932;28;20032;-45
2022/02/27 12:33:43;;;;;;;2.40;0.88;;;;;;;;;;5095032;28;20056;-45
2022/02/27 12:36:09;;;;;;;3.30;0.80;;;;;;;;;;5095730;28;20024;-45
2022/02/27 12:38:35;;;;;;;3.00;1.23;;;;;;;;;;5094548;28;20099;-48
2022/02/27 12:41:03;;;;;;;1.15;0.93;;;;;;;;;;5095424;28;20028;-45
2022/02/27 12:43:30;;;;;;;3.33;0.82;;;;;;;;;;5091264;28;20028;-47
2022/02/27 12:45:56;;;;;;;2.05;0.82;;;;;;;;;;5072185;28;20024;-45
2022/02/27 12:50:10;;;;;;;2.95;0.75;;;;;;;;;;5075184;28;20040;-46
2022/02/27 12:51:12;;;;;;;1.25;0.80;;;;;;;;;;5074799;28;20025;-45
2022/02/27 12:53:39;;;;;;;1.85;0.82;;;;;;;;;;5074485;28;20024;-47
2022/02/27 12:56:05;;;;;;;1.73;0.93;;;;;;;;;;5075183;28;20403;-45
2022/02/27 12:58:41;;;;;;;3.35;0.85;;;;;;;;;;5075001;28;20127;-47
2022/02/27 13:01:07;;;;;;;1.35;0.90;;;;;;;;;;5075007;28;20028;-45
2022/02/27 13:03:37;;;;;;;1.25;1.00;;;;;;;;;;5074467;28;20485;-47
2022/02/27 13:06:03;;;;;;;3.22;0.90;;;;;;;;;;5074971;28;20149;-45
2022/02/27 13:08:29;;;;;;;1.67;0.88;;;;;;;;;;5074457;28;20048;-45
2022/02/27 13:10:55;;;;;;;4.72;1.45;;;;;;;;;;5074149;28;20649;-44
2022/02/27 13:13:21;;;;;;;0.73;0.60;;;;;;;;;;5074818;28;20032;-50
2022/02/27 13:15:48;;;;;;;3.65;1.08;;;;;;;;;;5089821;28;20052;-48
2022/02/27 13:18:17;;;;;;;1.33;0.88;;;;;;;;;;5094881;28;20070;-48
2022/02/27 13:20:43;;;;;;;2.50;0.90;;;;;;;;;;5093862;28;20031;-49
2022/02/27 13:23:09;;;;;;;2.65;0.65;;;;;;;;;;5076843;28;20032;-46
2022/02/27 13:25:35;;;;;;;1.25;0.90;;;;;;;;;;5094021;28;20385;-50
2022/02/27 13:28:01;;;;;;;2.85;0.80;;;;;;;;;;5094485;28;20050;-45
2022/02/27 13:30:28;;;;;;;2.33;0.90;;;;;;;;;;5094676;28;20051;-46
2022/02/27 13:32:57;;;;;;;2.03;1.00;;;;;;;;;;5093964;28;20059;-45
2022/02/27 13:35:27;;;;;;;3.03;0.85;;;;;;;;;;5094648;28;20020;-47
2022/02/27 13:38:15;;;;;;;3.50;0.90;;;;;;;;;;5077339;28;20029;-45
2022/02/27 13:40:43;;;;;;;1.65;0.93;;;;;;;;;;5071896;28;20029;-49
2022/02/27 13:43:19;;;;;;;1.92;1.15;;;;;;;;;;5075642;28;20059;-45
2022/02/27 13:45:46;;;;;;;1.98;0.90;;;;;;;;;;5075508;28;20040;-47
2022/02/27 13:48:13;;;;;;;1.08;0.80;;;;;;;;;;5073306;28;20031;-47
2022/02/27 13:50:40;;;;;;;1.05;0.82;;;;;;;;;;5073515;28;20054;-48
2022/02/27 13:53:13;;;;;;;1.80;1.13;;;;;;;;;;5056002;28;20094;-49
2022/02/27 13:55:41;;;;;;;2.15;0.88;;;;;;;;;;5072460;28;20501;-47
2022/02/27 13:58:17;;;;;;;2.33;0.75;;;;;;;;;;5073627;28;20533;-47
2022/02/27 14:00:52;;;;;;;2.10;0.82;;;;;;;;;;5073167;28;20032;-45
2022/02/27 14:03:18;;;;;;;1.80;0.52;;;;;;;;;;5074157;28;20444;-49
2022/02/27 14:05:54;;;;;;;2.65;0.90;;;;;;;;;;5073139;28;20035;-49
2022/02/27 14:08:20;;;;;;;1.73;0.95;;;;;;;;;;5073526;28;20474;-45
2022/02/27 14:10:46;;;;;;;0.93;0.77;;;;;;;;;;5072775;28;20028;-46
2022/02/27 14:13:14;;;;;;;1.70;1.10;;;;;;;;;;5073825;28;20035;-49
2022/02/27 14:15:44;;;;;;;1.00;0.90;;;;;;;;;;5072765;28;20485;-48
2022/02/27 14:18:17;;;;;;;8.18;1.33;;;;;;;;;;5073606;28;20029;-48
2022/02/27 14:20:43;;;;;;;1.05;0.65;;;;;;;;;;5072641;28;20355;-45
2022/02/27 14:23:10;;;;;;;1.88;0.70;;;;;;;;;;5073598;28;20054;-44
2022/02/27 14:25:55;;;;;;;1.67;0.82;;;;;;;;;;5073332;28;20025;-45
2022/02/27 14:28:21;;;;;;;1.45;0.90;;;;;;;;;;5073266;28;20525;-45
2022/02/27 14:30:47;;;;;;;2.20;1.25;;;;;;;;;;5072624;28;20089;-48
2022/02/27 14:33:14;;;;;;;2.50;0.93;;;;;;;;;;5073383;28;20028;-43
2022/02/27 14:35:42;;;;;;;1.27;0.80;;;;;;;;;;5072574;28;20378;-49
2022/02/27 14:38:09;;;;;;;3.60;0.95;;;;;;;;;;5073231;28;20021;-45
2022/02/27 14:40:36;;;;;;;1.25;0.70;;;;;;;;;;5072992;28;20064;-49
2022/02/27 14:43:02;;;;;;;1.48;0.75;;;;;;;;;;5071893;28;20973;-45